sensor_id;sensor_type;location;lat;lon;timestamp;pressure;altitude;pressure_sealevel;temperature;humidity
8059;BME280;75058;42.668;23.396;2024-01-27T00:01:30;95625.81;;;3.71;52.41
8059;BME280;75058;42.668;23.396;2024-01-27T00:03:59;95614.88;;;4.00;51.88
8059;BME280;75058;42.668;23.396;2024-01-27T00:06:27;95616.97;;;3.96;51.59
8059;BME280;75058;42.668;23.396;2024-01-27T00:08:55;95618.97;;;3.86;51.50
8059;BME280;75058;42.668;23.396;2024-01-27T00:11:23;95616.19;;;3.96;51.98
8059;BME280;75058;42.668;23.396;2024-01-27T00:13:53;95626.63;;;3.71;52.17
8059;BME280;75058;42.668;23.396;2024-01-27T00:16:21;95629.88;;;3.65;51.87
8059;BME280;75058;42.668;23.396;2024-01-27T00:18:50;95621.09;;;3.74;52.20
8059;BME280;75058;42.668;23.396;2024-01-27T00:21:19;95611.69;;;3.81;51.80
8059;BME280;75058;42.668;23.396;2024-01-27T00:23:47;95603.69;;;3.60;52.59
8059;BME280;75058;42.668;23.396;2024-01-27T00:26:15;95604.47;;;3.69;52.77
8059;BME280;75058;42.668;23.396;2024-01-27T00:28:43;95615.16;;;3.11;53.87
8059;BME280;75058;42.668;23.396;2024-01-27T00:31:11;95625.03;;;2.35;55.25
8059;BME280;75058;42.668;23.396;2024-01-27T00:33:39;95620.00;;;2.17;57.02
8059;BME280;75058;42.668;23.396;2024-01-27T00:36:08;95621.06;;;1.49;58.30
8059;BME280;75058;42.668;23.396;2024-01-27T00:38:36;95613.50;;;1.55;59.00
8059;BME280;75058;42.668;23.396;2024-01-27T00:41:05;95622.81;;;1.48;58.51
8059;BME280;75058;42.668;23.396;2024-01-27T00:43:33;95613.88;;;1.35;58.28
8059;BME280;75058;42.668;23.396;2024-01-27T00:46:01;95604.09;;;1.38;58.28
8059;BME280;75058;42.668;23.396;2024-01-27T00:48:29;95616.97;;;1.80;58.78
8059;BME280;75058;42.668;23.396;2024-01-27T00:50:57;95621.28;;;1.64;57.74
8059;BME280;75058;42.668;23.396;2024-01-27T00:53:27;95622.28;;;1.71;58.31
8059;BME280;75058;42.668;23.396;2024-01-27T00:55:55;95516.63;;;1.03;58.49
8059;BME280;75058;42.668;23.396;2024-01-27T00:58:23;95624.38;;;1.41;58.45
8059;BME280;75058;42.668;23.396;2024-01-27T01:00:51;95620.88;;;0.48;61.60
8059;BME280;75058;42.668;23.396;2024-01-27T01:03:19;95616.53;;;0.13;62.54
8059;BME280;75058;42.668;23.396;2024-01-27T01:05:47;95605.03;;;0.78;61.17
8059;BME280;75058;42.668;23.396;2024-01-27T01:08:15;95611.13;;;0.16;62.86
8059;BME280;75058;42.668;23.396;2024-01-27T01:10:45;95612.00;;;0.42;62.72
8059;BME280;75058;42.668;23.396;2024-01-27T01:13:13;95603.47;;;0.24;63.14
8059;BME280;75058;42.668;23.396;2024-01-27T01:15:41;95610.00;;;0.19;63.29
8059;BME280;75058;42.668;23.396;2024-01-27T01:18:09;95624.78;;;0.34;63.67
8059;BME280;75058;42.668;23.396;2024-01-27T01:20:37;95625.09;;;0.31;63.04
8059;BME280;75058;42.668;23.396;2024-01-27T01:23:05;95626.31;;;0.62;62.63
8059;BME280;75058;42.668;23.396;2024-01-27T01:25:33;95625.34;;;0.63;62.60
8059;BME280;75058;42.668;23.396;2024-01-27T01:28:03;95622.63;;;0.65;62.71
8059;BME280;75058;42.668;23.396;2024-01-27T01:30:31;95619.00;;;0.75;61.65
8059;BME280;75058;42.668;23.396;2024-01-27T01:32:59;95619.38;;;1.32;61.41
8059;BME280;75058;42.668;23.396;2024-01-27T01:35:28;95611.66;;;1.06;61.14
8059;BME280;75058;42.668;23.396;2024-01-27T01:37:56;95601.69;;;1.11;60.55
8059;BME280;75058;42.668;23.396;2024-01-27T01:40:24;95604.25;;;0.86;61.47
8059;BME280;75058;42.668;23.396;2024-01-27T01:42:51;95603.59;;;0.84;61.58
8059;BME280;75058;42.668;23.396;2024-01-27T01:45:21;95506.97;;;0.46;60.90
8059;BME280;75058;42.668;23.396;2024-01-27T01:47:49;95590.38;;;1.38;60.49
8059;BME280;75058;42.668;23.396;2024-01-27T01:50:17;95580.13;;;1.54;60.96
8059;BME280;75058;42.668;23.396;2024-01-27T01:52:47;95584.56;;;1.28;59.56
8059;BME280;75058;42.668;23.396;2024-01-27T01:55:15;95579.44;;;1.44;59.85
8059;BME280;75058;42.668;23.396;2024-01-27T01:57:43;95586.31;;;0.94;61.01
8059;BME280;75058;42.668;23.396;2024-01-27T02:00:13;95586.34;;;1.02;60.81
8059;BME280;75058;42.668;23.396;2024-01-27T02:02:44;95586.34;;;1.35;60.17
8059;BME280;75058;42.668;23.396;2024-01-27T02:05:12;95576.03;;;1.35;59.52
8059;BME280;75058;42.668;23.396;2024-01-27T02:07:41;95576.28;;;1.16;60.62
8059;BME280;75058;42.668;23.396;2024-01-27T02:10:13;95567.13;;;1.22;60.52
8059;BME280;75058;42.668;23.396;2024-01-27T02:12:41;95564.09;;;1.76;60.05
8059;BME280;75058;42.668;23.396;2024-01-27T02:15:10;95548.06;;;1.48;59.53
8059;BME280;75058;42.668;23.396;2024-01-27T02:17:40;95543.44;;;1.60;60.95
8059;BME280;75058;42.668;23.396;2024-01-27T02:20:12;95551.34;;;1.67;60.57
8059;BME280;75058;42.668;23.396;2024-01-27T02:22:40;95557.00;;;1.86;60.47
8059;BME280;75058;42.668;23.396;2024-01-27T02:25:09;95563.81;;;1.95;60.07
8059;BME280;75058;42.668;23.396;2024-01-27T02:27:37;95570.97;;;1.51;60.24
8059;BME280;75058;42.668;23.396;2024-01-27T02:30:06;95570.94;;;1.18;60.71
8059;BME280;75058;42.668;23.396;2024-01-27T02:32:34;95561.16;;;1.21;61.45
8059;BME280;75058;42.668;23.396;2024-01-27T02:35:03;95570.69;;;0.95;61.57
8059;BME280;75058;42.668;23.396;2024-01-27T02:37:31;95560.31;;;1.13;61.50
8059;BME280;75058;42.668;23.396;2024-01-27T02:39:59;95567.94;;;0.97;61.37
8059;BME280;75058;42.668;23.396;2024-01-27T02:42:28;95573.97;;;0.79;62.79
8059;BME280;75058;42.668;23.396;2024-01-27T02:44:56;95568.16;;;0.77;62.48
8059;BME280;75058;42.668;23.396;2024-01-27T02:47:24;95569.81;;;0.87;62.68
8059;BME280;75058;42.668;23.396;2024-01-27T02:49:52;95569.66;;;0.88;62.55
8059;BME280;75058;42.668;23.396;2024-01-27T02:52:20;95556.25;;;1.02;62.52
8059;BME280;75058;42.668;23.396;2024-01-27T02:54:48;95562.25;;;1.11;63.19
8059;BME280;75058;42.668;23.396;2024-01-27T02:57:16;95552.91;;;0.84;62.73
8059;BME280;75058;42.668;23.396;2024-01-27T02:59:47;95561.59;;;0.83;62.99
8059;BME280;75058;42.668;23.396;2024-01-27T03:02:16;95558.63;;;0.70;63.37
8059;BME280;75058;42.668;23.396;2024-01-27T03:04:44;95571.50;;;0.70;63.57
8059;BME280;75058;42.668;23.396;2024-01-27T03:07:12;95569.91;;;1.03;63.39
8059;BME280;75058;42.668;23.396;2024-01-27T03:09:40;95578.63;;;1.02;63.02
8059;BME280;75058;42.668;23.396;2024-01-27T03:12:08;95593.47;;;1.08;62.88
8059;BME280;75058;42.668;23.396;2024-01-27T03:14:36;95579.44;;;1.36;62.77
8059;BME280;75058;42.668;23.396;2024-01-27T03:17:05;95574.56;;;1.33;61.76
8059;BME280;75058;42.668;23.396;2024-01-27T03:19:33;95542.13;;;1.14;62.51
8059;BME280;75058;42.668;23.396;2024-01-27T03:22:02;95576.72;;;1.45;63.50
8059;BME280;75058;42.668;23.396;2024-01-27T03:24:30;95573.13;;;1.88;62.97
8059;BME280;75058;42.668;23.396;2024-01-27T03:26:58;95563.00;;;1.95;60.93
8059;BME280;75058;42.668;23.396;2024-01-27T03:29:26;95452.22;;;1.03;60.96
8059;BME280;75058;42.668;23.396;2024-01-27T03:31:54;95558.06;;;1.51;61.13
8059;BME280;75058;42.668;23.396;2024-01-27T03:34:24;95559.84;;;1.51;60.84
8059;BME280;75058;42.668;23.396;2024-01-27T03:36:54;95557.41;;;2.07;60.14
8059;BME280;75058;42.668;23.396;2024-01-27T03:39:22;95562.91;;;2.37;58.01
8059;BME280;75058;42.668;23.396;2024-01-27T03:41:50;95545.56;;;3.01;56.83
8059;BME280;75058;42.668;23.396;2024-01-27T03:44:18;95547.16;;;3.49;56.18
8059;BME280;75058;42.668;23.396;2024-01-27T03:46:47;95543.66;;;3.73;56.95
8059;BME280;75058;42.668;23.396;2024-01-27T03:49:15;95542.31;;;4.08;56.93
8059;BME280;75058;42.668;23.396;2024-01-27T03:51:44;95548.56;;;4.21;56.68
8059;BME280;75058;42.668;23.396;2024-01-27T03:54:12;95535.69;;;4.28;57.95
8059;BME280;75058;42.668;23.396;2024-01-27T03:56:40;95526.63;;;4.32;57.76
8059;BME280;75058;42.668;23.396;2024-01-27T03:59:08;95534.44;;;4.24;58.34
8059;BME280;75058;42.668;23.396;2024-01-27T04:01:38;95534.94;;;4.19;57.79
8059;BME280;75058;42.668;23.396;2024-01-27T04:04:06;95535.19;;;4.10;58.84
8059;BME280;75058;42.668;23.396;2024-01-27T04:06:37;95542.59;;;4.35;58.53
8059;BME280;75058;42.668;23.396;2024-01-27T04:09:07;95543.59;;;4.12;59.28
8059;BME280;75058;42.668;23.396;2024-01-27T04:11:36;95473.53;;;3.60;59.05
8059;BME280;75058;42.668;23.396;2024-01-27T04:14:04;95536.84;;;4.03;59.35
8059;BME280;75058;42.668;23.396;2024-01-27T04:16:32;95537.44;;;4.13;60.59
8059;BME280;75058;42.668;23.396;2024-01-27T04:19:00;95547.69;;;4.06;60.02
8059;BME280;75058;42.668;23.396;2024-01-27T04:21:29;95528.88;;;3.81;60.62
8059;BME280;75058;42.668;23.396;2024-01-27T04:23:57;95521.56;;;3.62;61.07
8059;BME280;75058;42.668;23.396;2024-01-27T04:26:27;95521.03;;;3.67;61.65
8059;BME280;75058;42.668;23.396;2024-01-27T04:28:55;95528.47;;;3.70;61.29
8059;BME280;75058;42.668;23.396;2024-01-27T04:31:23;95528.00;;;3.66;61.31
8059;BME280;75058;42.668;23.396;2024-01-27T04:33:51;95522.69;;;3.60;61.30
8059;BME280;75058;42.668;23.396;2024-01-27T04:36:25;95528.34;;;3.63;61.90
8059;BME280;75058;42.668;23.396;2024-01-27T04:38:54;95528.25;;;3.49;61.89
8059;BME280;75058;42.668;23.396;2024-01-27T04:41:22;95536.94;;;3.56;62.24
8059;BME280;75058;42.668;23.396;2024-01-27T04:43:51;95541.66;;;3.52;62.15
8059;BME280;75058;42.668;23.396;2024-01-27T04:46:22;95538.34;;;3.66;61.63
8059;BME280;75058;42.668;23.396;2024-01-27T04:48:50;95526.63;;;3.48;62.12
8059;BME280;75058;42.668;23.396;2024-01-27T04:51:18;95526.63;;;3.48;62.41
8059;BME280;75058;42.668;23.396;2024-01-27T04:53:46;95534.06;;;3.12;64.86
8059;BME280;75058;42.668;23.396;2024-01-27T04:56:14;95537.47;;;3.04;65.50
8059;BME280;75058;42.668;23.396;2024-01-27T04:58:42;95543.66;;;2.79;66.05
8059;BME280;75058;42.668;23.396;2024-01-27T05:01:12;95543.84;;;2.62;66.56
8059;BME280;75058;42.668;23.396;2024-01-27T05:03:40;95551.75;;;2.28;68.03
8059;BME280;75058;42.668;23.396;2024-01-27T05:06:08;95554.97;;;2.06;67.77
8059;BME280;75058;42.668;23.396;2024-01-27T05:08:37;95556.88;;;2.04;68.55
8059;BME280;75058;42.668;23.396;2024-01-27T05:11:06;95557.88;;;2.03;68.80
8059;BME280;75058;42.668;23.396;2024-01-27T05:13:34;95557.69;;;2.04;69.45
8059;BME280;75058;42.668;23.396;2024-01-27T05:16:02;95556.06;;;1.87;70.26
8059;BME280;75058;42.668;23.396;2024-01-27T05:18:31;95560.56;;;1.85;70.48
8059;BME280;75058;42.668;23.396;2024-01-27T05:20:59;95558.28;;;1.74;70.42
8059;BME280;75058;42.668;23.396;2024-01-27T05:23:27;95564.44;;;1.81;70.64
8059;BME280;75058;42.668;23.396;2024-01-27T05:25:55;95559.25;;;1.73;70.60
8059;BME280;75058;42.668;23.396;2024-01-27T05:28:23;95554.22;;;1.64;71.39
8059;BME280;75058;42.668;23.396;2024-01-27T05:30:51;95559.56;;;1.70;71.52
8059;BME280;75058;42.668;23.396;2024-01-27T05:33:19;95555.25;;;1.79;71.21
8059;BME280;75058;42.668;23.396;2024-01-27T05:35:48;95556.06;;;1.79;70.86
8059;BME280;75058;42.668;23.396;2024-01-27T05:38:17;95552.00;;;1.77;71.07
8059;BME280;75058;42.668;23.396;2024-01-27T05:40:44;95561.06;;;1.89;71.06
8059;BME280;75058;42.668;23.396;2024-01-27T05:43:12;95561.53;;;1.84;71.44
8059;BME280;75058;42.668;23.396;2024-01-27T05:45:40;95563.63;;;1.81;71.53
8059;BME280;75058;42.668;23.396;2024-01-27T05:48:08;95559.91;;;1.75;71.78
8059;BME280;75058;42.668;23.396;2024-01-27T05:50:36;95564.91;;;1.77;71.43
8059;BME280;75058;42.668;23.396;2024-01-27T05:53:06;95563.59;;;1.73;71.87
8059;BME280;75058;42.668;23.396;2024-01-27T05:55:34;95565.03;;;1.67;72.58
8059;BME280;75058;42.668;23.396;2024-01-27T05:58:02;95567.94;;;1.64;71.77
8059;BME280;75058;42.668;23.396;2024-01-27T06:00:30;95576.78;;;1.62;72.53
8059;BME280;75058;42.668;23.396;2024-01-27T06:02:58;95573.56;;;1.60;72.96
8059;BME280;75058;42.668;23.396;2024-01-27T06:05:26;95573.53;;;1.51;73.48
8059;BME280;75058;42.668;23.396;2024-01-27T06:07:54;95578.53;;;1.53;73.80
8059;BME280;75058;42.668;23.396;2024-01-27T06:10:24;95575.47;;;1.49;73.76
8059;BME280;75058;42.668;23.396;2024-01-27T06:12:52;95584.69;;;1.60;74.02
8059;BME280;75058;42.668;23.396;2024-01-27T06:15:20;95581.59;;;1.56;73.72
8059;BME280;75058;42.668;23.396;2024-01-27T06:17:48;95597.16;;;1.89;73.97
8059;BME280;75058;42.668;23.396;2024-01-27T06:20:16;95599.69;;;2.30;72.35
8059;BME280;75058;42.668;23.396;2024-01-27T06:22:45;95603.25;;;2.54;71.88
8059;BME280;75058;42.668;23.396;2024-01-27T06:25:14;95603.72;;;2.65;70.79
8059;BME280;75058;42.668;23.396;2024-01-27T06:27:44;95607.28;;;2.56;71.09
8059;BME280;75058;42.668;23.396;2024-01-27T06:30:13;95609.22;;;2.62;70.81
8059;BME280;75058;42.668;23.396;2024-01-27T06:32:42;95605.50;;;2.65;71.14
8059;BME280;75058;42.668;23.396;2024-01-27T06:35:10;95606.81;;;2.61;70.62
8059;BME280;75058;42.668;23.396;2024-01-27T06:37:38;95605.81;;;2.62;71.11
8059;BME280;75058;42.668;23.396;2024-01-27T06:40:07;95618.91;;;2.60;70.92
8059;BME280;75058;42.668;23.396;2024-01-27T06:42:36;95617.91;;;2.61;71.25
8059;BME280;75058;42.668;23.396;2024-01-27T06:45:06;95621.66;;;2.75;71.27
8059;BME280;75058;42.668;23.396;2024-01-27T06:47:34;95628.44;;;2.60;71.28
8059;BME280;75058;42.668;23.396;2024-01-27T06:50:02;95629.88;;;2.78;70.37
8059;BME280;75058;42.668;23.396;2024-01-27T06:52:31;95631.31;;;2.81;70.86
8059;BME280;75058;42.668;23.396;2024-01-27T06:54:59;95621.63;;;2.99;70.42
8059;BME280;75058;42.668;23.396;2024-01-27T06:57:26;95625.78;;;3.24;70.14
8059;BME280;75058;42.668;23.396;2024-01-27T06:59:54;95615.97;;;3.66;68.69
8059;BME280;75058;42.668;23.396;2024-01-27T07:02:24;95612.72;;;4.34;67.05
8059;BME280;75058;42.668;23.396;2024-01-27T07:04:53;95604.34;;;4.69;65.80
8059;BME280;75058;42.668;23.396;2024-01-27T07:07:23;95605.81;;;5.09;63.50
8059;BME280;75058;42.668;23.396;2024-01-27T07:09:52;95532.09;;;4.51;63.30
8059;BME280;75058;42.668;23.396;2024-01-27T07:12:20;95590.50;;;5.14;63.08
8059;BME280;75058;42.668;23.396;2024-01-27T07:14:48;95558.66;;;5.64;61.02
8059;BME280;75058;42.668;23.396;2024-01-27T07:17:16;95579.19;;;5.88;60.75
8059;BME280;75058;42.668;23.396;2024-01-27T07:19:46;95588.66;;;5.66;59.28
8059;BME280;75058;42.668;23.396;2024-01-27T07:22:14;95592.31;;;5.86;58.47
8059;BME280;75058;42.668;23.396;2024-01-27T07:24:42;95606.38;;;5.77;58.78
8059;BME280;75058;42.668;23.396;2024-01-27T07:27:12;95616.06;;;5.69;58.86
8059;BME280;75058;42.668;23.396;2024-01-27T07:29:40;95611.81;;;5.68;58.60
8059;BME280;75058;42.668;23.396;2024-01-27T07:32:08;95622.72;;;5.78;58.71
8059;BME280;75058;42.668;23.396;2024-01-27T07:34:40;95630.72;;;5.76;57.62
8059;BME280;75058;42.668;23.396;2024-01-27T07:37:10;95642.78;;;5.69;57.95
8059;BME280;75058;42.668;23.396;2024-01-27T07:39:38;95620.31;;;5.76;57.24
8059;BME280;75058;42.668;23.396;2024-01-27T07:42:07;95668.13;;;5.67;57.67
8059;BME280;75058;42.668;23.396;2024-01-27T07:44:36;95658.84;;;5.73;57.02
8059;BME280;75058;42.668;23.396;2024-01-27T07:47:04;95653.72;;;5.79;57.01
8059;BME280;75058;42.668;23.396;2024-01-27T07:49:32;95636.53;;;6.07;56.52
8059;BME280;75058;42.668;23.396;2024-01-27T07:52:00;95632.06;;;5.87;55.96
8059;BME280;75058;42.668;23.396;2024-01-27T07:54:29;95657.31;;;5.78;56.27
8059;BME280;75058;42.668;23.396;2024-01-27T07:56:58;95641.72;;;5.78;55.41
8059;BME280;75058;42.668;23.396;2024-01-27T07:59:26;95655.63;;;5.71;55.53
8059;BME280;75058;42.668;23.396;2024-01-27T08:01:54;95676.19;;;5.72;55.32
8059;BME280;75058;42.668;23.396;2024-01-27T08:04:22;95650.13;;;5.66;55.70
8059;BME280;75058;42.668;23.396;2024-01-27T08:06:51;95649.69;;;5.62;55.08
8059;BME280;75058;42.668;23.396;2024-01-27T08:09:19;95650.13;;;5.66;55.13
8059;BME280;75058;42.668;23.396;2024-01-27T08:11:48;95649.06;;;5.75;55.10
8059;BME280;75058;42.668;23.396;2024-01-27T08:14:19;95653.56;;;5.66;55.29
8059;BME280;75058;42.668;23.396;2024-01-27T08:16:49;95671.72;;;5.66;54.85
8059;BME280;75058;42.668;23.396;2024-01-27T08:19:17;95655.03;;;5.75;54.89
8059;BME280;75058;42.668;23.396;2024-01-27T08:21:47;95657.03;;;5.73;55.20
8059;BME280;75058;42.668;23.396;2024-01-27T08:24:15;95641.19;;;5.97;56.22
8059;BME280;75058;42.668;23.396;2024-01-27T08:26:44;95633.59;;;5.81;54.59
8059;BME280;75058;42.668;23.396;2024-01-27T08:29:14;95561.97;;;5.28;54.82
8059;BME280;75058;42.668;23.396;2024-01-27T08:31:42;95622.84;;;5.70;54.89
8059;BME280;75058;42.668;23.396;2024-01-27T08:34:10;95624.09;;;5.88;54.83
8059;BME280;75058;42.668;23.396;2024-01-27T08:36:41;95617.41;;;5.94;53.52
8059;BME280;75058;42.668;23.396;2024-01-27T08:39:09;95634.53;;;6.24;53.20
8059;BME280;75058;42.668;23.396;2024-01-27T08:41:39;95603.47;;;6.01;53.19
8059;BME280;75058;42.668;23.396;2024-01-27T08:44:07;95614.19;;;6.28;52.96
8059;BME280;75058;42.668;23.396;2024-01-27T08:46:36;95627.75;;;6.08;52.85
8059;BME280;75058;42.668;23.396;2024-01-27T08:49:04;95646.28;;;6.20;53.24
8059;BME280;75058;42.668;23.396;2024-01-27T08:51:32;95638.13;;;6.23;52.64
8059;BME280;75058;42.668;23.396;2024-01-27T08:54:01;95617.13;;;6.39;52.19
8059;BME280;75058;42.668;23.396;2024-01-27T08:56:30;95607.84;;;6.51;51.78
8059;BME280;75058;42.668;23.396;2024-01-27T08:58:58;95614.69;;;6.59;52.01
8059;BME280;75058;42.668;23.396;2024-01-27T09:01:26;95618.66;;;6.55;52.03
8059;BME280;75058;42.668;23.396;2024-01-27T09:03:55;95617.97;;;6.67;51.61
8059;BME280;75058;42.668;23.396;2024-01-27T09:06:23;95623.13;;;6.61;51.82
8059;BME280;75058;42.668;23.396;2024-01-27T09:08:57;95613.72;;;6.81;51.42
8059;BME280;75058;42.668;23.396;2024-01-27T09:11:25;95608.53;;;6.60;51.93
8059;BME280;75058;42.668;23.396;2024-01-27T09:13:54;95603.44;;;6.73;51.38
8059;BME280;75058;42.668;23.396;2024-01-27T09:16:22;95596.88;;;6.77;51.61
8059;BME280;75058;42.668;23.396;2024-01-27T09:18:50;95590.75;;;6.63;50.74
8059;BME280;75058;42.668;23.396;2024-01-27T09:21:21;95597.00;;;6.69;51.50
8059;BME280;75058;42.668;23.396;2024-01-27T09:23:55;95602.34;;;6.82;50.36
8059;BME280;75058;42.668;23.396;2024-01-27T09:26:24;95575.31;;;6.83;50.11
8059;BME280;75058;42.668;23.396;2024-01-27T09:28:52;95604.78;;;6.90;50.58
8059;BME280;75058;42.668;23.396;2024-01-27T09:31:22;95609.44;;;6.94;50.52
8059;BME280;75058;42.668;23.396;2024-01-27T09:33:50;95612.41;;;7.19;49.80
8059;BME280;75058;42.668;23.396;2024-01-27T09:36:21;95618.34;;;7.34;49.51
8059;BME280;75058;42.668;23.396;2024-01-27T09:38:49;95624.34;;;7.35;49.42
8059;BME280;75058;42.668;23.396;2024-01-27T09:41:19;95622.09;;;7.59;48.64
8059;BME280;75058;42.668;23.396;2024-01-27T09:43:47;95648.94;;;7.60;49.63
8059;BME280;75058;42.668;23.396;2024-01-27T09:46:15;95605.69;;;7.25;49.31
8059;BME280;75058;42.668;23.396;2024-01-27T09:48:44;95668.81;;;7.33;49.19
8059;BME280;75058;42.668;23.396;2024-01-27T09:51:12;95668.75;;;7.27;49.04
8059;BME280;75058;42.668;23.396;2024-01-27T09:53:42;95675.59;;;7.34;49.60
8059;BME280;75058;42.668;23.396;2024-01-27T09:56:11;95681.19;;;7.10;49.88
8059;BME280;75058;42.668;23.396;2024-01-27T09:58:45;95687.47;;;6.94;49.75
8059;BME280;75058;42.668;23.396;2024-01-27T10:01:17;95686.88;;;6.78;50.44
8059;BME280;75058;42.668;23.396;2024-01-27T10:03:47;95714.78;;;6.69;50.50
8059;BME280;75058;42.668;23.396;2024-01-27T10:06:15;95677.59;;;6.48;50.48
8059;BME280;75058;42.668;23.396;2024-01-27T10:08:51;95699.63;;;6.52;50.67
8059;BME280;75058;42.668;23.396;2024-01-27T10:11:21;95692.41;;;6.68;50.14
8059;BME280;75058;42.668;23.396;2024-01-27T10:13:54;95626.50;;;6.40;50.14
8059;BME280;75058;42.668;23.396;2024-01-27T10:16:26;95656.97;;;6.46;50.53
8059;BME280;75058;42.668;23.396;2024-01-27T10:19:00;95667.19;;;6.48;50.68
8059;BME280;75058;42.668;23.396;2024-01-27T10:21:29;95686.56;;;6.45;50.61
8059;BME280;75058;42.668;23.396;2024-01-27T10:23:59;95689.81;;;6.89;50.04
8059;BME280;75058;42.668;23.396;2024-01-27T10:26:30;95701.44;;;6.72;50.50
8059;BME280;75058;42.668;23.396;2024-01-27T10:28:59;95649.00;;;6.69;50.38
8059;BME280;75058;42.668;23.396;2024-01-27T10:31:28;95690.81;;;6.53;51.11
8059;BME280;75058;42.668;23.396;2024-01-27T10:33:57;95696.31;;;6.43;51.18
8059;BME280;75058;42.668;23.396;2024-01-27T10:36:25;95689.88;;;6.39;51.71
8059;BME280;75058;42.668;23.396;2024-01-27T10:38:54;95712.41;;;6.17;51.45
8059;BME280;75058;42.668;23.396;2024-01-27T10:41:24;95693.53;;;6.45;50.99
8059;BME280;75058;42.668;23.396;2024-01-27T10:43:55;95706.72;;;6.43;51.01
8059;BME280;75058;42.668;23.396;2024-01-27T10:46:26;95644.59;;;6.48;51.17
8059;BME280;75058;42.668;23.396;2024-01-27T10:48:54;95703.94;;;6.45;51.15
8059;BME280;75058;42.668;23.396;2024-01-27T10:51:29;95670.69;;;6.40;50.59
8059;BME280;75058;42.668;23.396;2024-01-27T10:54:02;95686.84;;;6.21;51.73
8059;BME280;75058;42.668;23.396;2024-01-27T10:56:32;95717.19;;;6.35;51.91
8059;BME280;75058;42.668;23.396;2024-01-27T10:59:01;95724.47;;;6.54;51.58
8059;BME280;75058;42.668;23.396;2024-01-27T11:01:31;95715.78;;;6.33;51.95
8059;BME280;75058;42.668;23.396;2024-01-27T11:04:00;95717.19;;;6.50;51.57
8059;BME280;75058;42.668;23.396;2024-01-27T11:06:31;95725.34;;;6.47;51.91
8059;BME280;75058;42.668;23.396;2024-01-27T11:09:02;95734.53;;;6.28;51.94
8059;BME280;75058;42.668;23.396;2024-01-27T11:11:34;95705.31;;;6.26;51.97
8059;BME280;75058;42.668;23.396;2024-01-27T11:14:03;95735.13;;;6.01;52.48
8059;BME280;75058;42.668;23.396;2024-01-27T11:16:31;95724.47;;;6.25;52.39
8059;BME280;75058;42.668;23.396;2024-01-27T11:18:58;95736.13;;;6.14;52.96
8059;BME280;75058;42.668;23.396;2024-01-27T11:21:27;95747.59;;;6.35;52.80
8059;BME280;75058;42.668;23.396;2024-01-27T11:23:56;95736.50;;;6.26;53.09
8059;BME280;75058;42.668;23.396;2024-01-27T11:26:24;95749.66;;;6.39;52.54
8059;BME280;75058;42.668;23.396;2024-01-27T11:28:54;95738.53;;;5.87;53.39
8059;BME280;75058;42.668;23.396;2024-01-27T11:31:22;95746.28;;;5.72;54.16
8059;BME280;75058;42.668;23.396;2024-01-27T11:33:50;95764.59;;;6.22;53.34
8059;BME280;75058;42.668;23.396;2024-01-27T11:36:22;95754.13;;;6.01;54.02
8059;BME280;75058;42.668;23.396;2024-01-27T11:38:52;95763.53;;;6.02;53.46
8059;BME280;75058;42.668;23.396;2024-01-27T11:41:29;95740.66;;;5.69;53.90
8059;BME280;75058;42.668;23.396;2024-01-27T11:43:58;95777.25;;;6.11;53.54
8059;BME280;75058;42.668;23.396;2024-01-27T11:46:28;95773.94;;;5.65;53.67
8059;BME280;75058;42.668;23.396;2024-01-27T11:48:56;95776.41;;;5.59;54.15
8059;BME280;75058;42.668;23.396;2024-01-27T11:51:24;95763.22;;;5.45;54.42
8059;BME280;75058;42.668;23.396;2024-01-27T11:53:53;95775.56;;;5.43;54.22
8059;BME280;75058;42.668;23.396;2024-01-27T11:56:21;95772.59;;;5.32;54.00
8059;BME280;75058;42.668;23.396;2024-01-27T11:58:49;95777.03;;;5.61;53.75
8059;BME280;75058;42.668;23.396;2024-01-27T12:01:19;95767.03;;;5.58;53.37
8059;BME280;75058;42.668;23.396;2024-01-27T12:03:47;95772.22;;;5.58;53.13
8059;BME280;75058;42.668;23.396;2024-01-27T12:06:16;95775.22;;;5.84;53.79
8059;BME280;75058;42.668;23.396;2024-01-27T12:08:46;95775.56;;;5.81;52.12
8059;BME280;75058;42.668;23.396;2024-01-27T12:11:16;95748.44;;;5.69;52.29
8059;BME280;75058;42.668;23.396;2024-01-27T12:13:50;95776.91;;;5.77;51.83
8059;BME280;75058;42.668;23.396;2024-01-27T12:16:21;95771.16;;;5.89;51.48
8059;BME280;75058;42.668;23.396;2024-01-27T12:18:52;95787.56;;;6.04;51.50
8059;BME280;75058;42.668;23.396;2024-01-27T12:21:21;95793.69;;;5.89;51.59
8059;BME280;75058;42.668;23.396;2024-01-27T12:23:52;95758.09;;;6.41;50.48
8059;BME280;75058;42.668;23.396;2024-01-27T12:26:21;95773.50;;;6.13;50.33
8059;BME280;75058;42.668;23.396;2024-01-27T12:28:50;95776.09;;;6.28;49.77
8059;BME280;75058;42.668;23.396;2024-01-27T12:31:19;95775.28;;;6.42;49.80
8059;BME280;75058;42.668;23.396;2024-01-27T12:33:51;95775.56;;;6.33;50.11
8059;BME280;75058;42.668;23.396;2024-01-27T12:36:20;95764.63;;;6.37;50.15
8059;BME280;75058;42.668;23.396;2024-01-27T12:38:56;95763.09;;;6.43;49.45
8059;BME280;75058;42.668;23.396;2024-01-27T12:41:25;95742.56;;;6.48;49.54
8059;BME280;75058;42.668;23.396;2024-01-27T12:43:54;95712.09;;;6.27;49.30
8059;BME280;75058;42.668;23.396;2024-01-27T12:46:23;95747.44;;;6.72;49.33
8059;BME280;75058;42.668;23.396;2024-01-27T12:48:52;95770.13;;;6.63;49.13
8059;BME280;75058;42.668;23.396;2024-01-27T12:51:20;95721.56;;;5.76;49.89
8059;BME280;75058;42.668;23.396;2024-01-27T12:53:48;95785.94;;;6.03;50.19
8059;BME280;75058;42.668;23.396;2024-01-27T12:56:16;95800.63;;;6.26;50.33
8059;BME280;75058;42.668;23.396;2024-01-27T12:58:44;95747.72;;;5.75;50.45
8059;BME280;75058;42.668;23.396;2024-01-27T13:01:13;95791.69;;;6.28;49.69
8059;BME280;75058;42.668;23.396;2024-01-27T13:03:42;95786.28;;;6.00;50.36
8059;BME280;75058;42.668;23.396;2024-01-27T13:06:12;95787.75;;;6.03;50.07
8059;BME280;75058;42.668;23.396;2024-01-27T13:08:41;95791.31;;;6.16;50.22
8059;BME280;75058;42.668;23.396;2024-01-27T13:11:09;95737.59;;;5.65;49.03
8059;BME280;75058;42.668;23.396;2024-01-27T13:13:40;95787.81;;;6.09;48.26
8059;BME280;75058;42.668;23.396;2024-01-27T13:16:09;95809.56;;;5.94;48.55
8059;BME280;75058;42.668;23.396;2024-01-27T13:18:37;95815.50;;;6.46;47.77